sensor_id;sensor_type;location;lat;lon;timestamp;pressure;altitude;pressure_sealevel;temperature;humidity
54453;BME280;40363;52.270;10.546;2023-02-11T00:00:18;78652.13;;;-147.06;78.61
54453;BME280;40363;52.270;10.546;2023-02-11T00:02:44;78654.19;;;-147.06;79.02
54453;BME280;40363;52.270;10.546;2023-02-11T00:05:12;78643.91;;;-147.06;79.27
54453;BME280;40363;52.270;10.546;2023-02-11T00:07:39;78633.63;;;-147.06;79.60
54453;BME280;40363;52.270;10.546;2023-02-11T00:10:06;78639.78;;;-147.06;79.95
54453;BME280;40363;52.270;10.546;2023-02-11T00:12:34;78633.63;;;-147.06;80.24
54453;BME280;40363;52.270;10.546;2023-02-11T00:15:00;78617.16;;;-147.06;80.81
54453;BME280;40363;52.270;10.546;2023-02-11T00:17:27;78598.66;;;-147.06;80.84
54453;BME280;40363;52.270;10.546;2023-02-11T00:19:54;78590.44;;;-147.06;80.83
54453;BME280;40363;52.270;10.546;2023-02-11T00:22:22;78584.25;;;-147.06;80.82
54453;BME280;40363;52.270;10.546;2023-02-11T00:24:48;78598.66;;;-147.06;81.48
54453;BME280;40363;52.270;10.546;2023-02-11T00:27:15;78600.72;;;-147.06;81.76
54453;BME280;40363;52.270;10.546;2023-02-11T00:29:42;78596.59;;;-147.06;82.11
54453;BME280;40363;52.270;10.546;2023-02-11T00:32:08;78598.66;;;-147.06;82.31
54453;BME280;40363;52.270;10.546;2023-02-11T00:34:36;78578.09;;;-147.06;82.48
54453;BME280;40363;52.270;10.546;2023-02-11T00:37:03;78557.53;;;-147.06;83.09
54453;BME280;40363;52.270;10.546;2023-02-11T00:39:33;78528.75;;;-147.06;83.51
54453;BME280;40363;52.270;10.546;2023-02-11T00:41:59;78520.50;;;-147.06;83.36
54453;BME280;40363;52.270;10.546;2023-02-11T00:44:26;78528.75;;;-147.06;83.25
54453;BME280;40363;52.270;10.546;2023-02-11T00:46:53;78502.00;;;-147.06;83.14
54453;BME280;40363;52.270;10.546;2023-02-11T00:49:20;78502.00;;;-147.06;83.30
54453;BME280;40363;52.270;10.546;2023-02-11T00:51:47;78481.44;;;-147.06;83.33
54453;BME280;40363;52.270;10.546;2023-02-11T00:54:13;78504.06;;;-147.06;83.21
54453;BME280;40363;52.270;10.546;2023-02-11T00:56:41;78485.56;;;-147.06;83.09
54453;BME280;40363;52.270;10.546;2023-02-11T00:59:08;78493.78;;;-147.06;83.04
54453;BME280;40363;52.270;10.546;2023-02-11T01:01:34;78491.72;;;-147.06;83.13
54453;BME280;40363;52.270;10.546;2023-02-11T01:04:01;78479.38;;;-147.06;83.09
54453;BME280;40363;52.270;10.546;2023-02-11T01:06:28;78499.94;;;-147.06;83.13
54453;BME280;40363;52.270;10.546;2023-02-11T01:08:54;78499.94;;;-147.06;83.33
54453;BME280;40363;52.270;10.546;2023-02-11T01:11:22;78491.72;;;-147.06;83.12
54453;BME280;40363;52.270;10.546;2023-02-11T01:13:51;78483.50;;;-147.06;83.41
54453;BME280;40363;52.270;10.546;2023-02-11T01:16:18;78469.09;;;-147.06;83.58
54453;BME280;40363;52.270;10.546;2023-02-11T01:18:46;78467.06;;;-147.06;83.83
54453;BME280;40363;52.270;10.546;2023-02-11T01:21:12;78452.66;;;-147.06;83.76
54453;BME280;40363;52.270;10.546;2023-02-11T01:23:40;78442.38;;;-147.06;83.66
54453;BME280;40363;52.270;10.546;2023-02-11T01:26:07;78436.22;;;-147.06;83.94
54453;BME280;40363;52.270;10.546;2023-02-11T01:28:33;78444.44;;;-147.06;83.99
54453;BME280;40363;52.270;10.546;2023-02-11T01:31:02;78438.25;;;-147.06;84.19
54453;BME280;40363;52.270;10.546;2023-02-11T01:33:29;78440.31;;;-147.06;84.54
54453;BME280;40363;52.270;10.546;2023-02-11T01:35:59;78434.16;;;-147.06;84.60
54453;BME280;40363;52.270;10.546;2023-02-11T01:38:26;78438.25;;;-147.06;84.77
54453;BME280;40363;52.270;10.546;2023-02-11T01:40:55;78430.03;;;-147.06;84.98
54453;BME280;40363;52.270;10.546;2023-02-11T01:43:22;78434.16;;;-147.06;85.24
54453;BME280;40363;52.270;10.546;2023-02-11T01:46:01;78430.03;;;-147.06;85.21
54453;BME280;40363;52.270;10.546;2023-02-11T01:48:33;78430.03;;;-147.06;85.47
54453;BME280;40363;52.270;10.546;2023-02-11T01:51:04;78419.75;;;-147.06;85.83
54453;BME280;40363;52.270;10.546;2023-02-11T01:53:33;78409.47;;;-147.06;86.06
54453;BME280;40363;52.270;10.546;2023-02-11T01:56:19;78415.63;;;-147.06;86.37
54453;BME280;40363;52.270;10.546;2023-02-11T01:59:07;78419.75;;;-147.06;86.48
54453;BME280;40363;52.270;10.546;2023-02-11T02:01:39;78413.59;;;-147.06;86.53
54453;BME280;40363;52.270;10.546;2023-02-11T02:04:08;78419.75;;;-147.06;86.62
54453;BME280;40363;52.270;10.546;2023-02-11T02:06:41;78413.59;;;-147.06;87.03
54453;BME280;40363;52.270;10.546;2023-02-11T02:09:13;78401.25;;;-147.06;86.97
54453;BME280;40363;52.270;10.546;2023-02-11T02:11:42;78397.13;;;-147.06;87.07
54453;BME280;40363;52.270;10.546;2023-02-11T02:14:09;78405.34;;;-147.06;87.61
54453;BME280;40363;52.270;10.546;2023-02-11T02:16:36;78384.78;;;-147.06;87.69
54453;BME280;40363;52.270;10.546;2023-02-11T02:19:34;78390.97;;;-147.06;88.16
54453;BME280;40363;52.270;10.546;2023-02-11T02:22:32;78374.50;;;-147.06;88.41
54453;BME280;40363;52.270;10.546;2023-02-11T02:28:27;78376.56;;;-147.06;88.86
54453;BME280;40363;52.270;10.546;2023-02-11T02:31:14;78380.69;;;-147.06;89.28
54453;BME280;40363;52.270;10.546;2023-02-11T02:33:52;78374.50;;;-147.06;89.31
54453;BME280;40363;52.270;10.546;2023-02-11T02:36:22;78395.06;;;-147.06;89.66
54453;BME280;40363;52.270;10.546;2023-02-11T02:38:57;78395.06;;;-147.06;90.17
54453;BME280;40363;52.270;10.546;2023-02-11T02:41:30;78370.41;;;-147.06;90.26
54453;BME280;40363;52.270;10.546;2023-02-11T02:43:59;78368.34;;;-147.06;90.30
54453;BME280;40363;52.270;10.546;2023-02-11T02:46:28;78388.91;;;-147.06;91.22
54453;BME280;40363;52.270;10.546;2023-02-11T02:48:59;78384.78;;;-147.06;91.42
54453;BME280;40363;52.270;10.546;2023-02-11T02:51:59;78372.47;;;-147.06;91.25
54453;BME280;40363;52.270;10.546;2023-02-11T02:54:39;78374.50;;;-147.06;91.54
54453;BME280;40363;52.270;10.546;2023-02-11T02:57:21;78374.50;;;-147.06;91.46
54453;BME280;40363;52.270;10.546;2023-02-11T03:00:07;78360.13;;;-147.06;91.46
54453;BME280;40363;52.270;10.546;2023-02-11T03:02:43;78360.13;;;-147.06;91.26
54453;BME280;40363;52.270;10.546;2023-02-11T03:05:17;78372.47;;;-147.06;91.90
54453;BME280;40363;52.270;10.546;2023-02-11T03:07:50;78364.22;;;-147.06;91.81
54453;BME280;40363;52.270;10.546;2023-02-11T03:10:24;78360.13;;;-147.06;91.57
54453;BME280;40363;52.270;10.546;2023-02-11T03:12:53;78376.56;;;-147.06;92.14
54453;BME280;40363;52.270;10.546;2023-02-11T03:15:22;78370.41;;;-147.06;92.03
54453;BME280;40363;52.270;10.546;2023-02-11T03:17:52;78366.28;;;-147.06;92.41
54453;BME280;40363;52.270;10.546;2023-02-11T03:20:21;78372.47;;;-147.06;92.59
54453;BME280;40363;52.270;10.546;2023-02-11T03:22:52;78376.56;;;-147.06;92.84
54453;BME280;40363;52.270;10.546;2023-02-11T03:25:21;78376.56;;;-147.06;93.18
54453;BME280;40363;52.270;10.546;2023-02-11T03:27:55;78386.84;;;-147.06;93.50
54453;BME280;40363;52.270;10.546;2023-02-11T03:30:26;78370.41;;;-147.06;93.34
54453;BME280;40363;52.270;10.546;2023-02-11T03:32:56;78384.78;;;-147.06;93.70
54453;BME280;40363;52.270;10.546;2023-02-11T03:35:32;78368.34;;;-147.06;93.99
54453;BME280;40363;52.270;10.546;2023-02-11T03:38:04;78368.34;;;-147.06;94.09
54453;BME280;40363;52.270;10.546;2023-02-11T03:40:35;78358.06;;;-147.06;94.30
54453;BME280;40363;52.270;10.546;2023-02-11T03:43:07;78356.00;;;-147.06;94.39
54453;BME280;40363;52.270;10.546;2023-02-11T03:45:36;78351.91;;;-147.06;94.29
54453;BME280;40363;52.270;10.546;2023-02-11T03:48:07;78360.13;;;-147.06;94.29
54453;BME280;40363;52.270;10.546;2023-02-11T03:50:37;78362.19;;;-147.06;94.54
54453;BME280;40363;52.270;10.546;2023-02-11T03:53:05;78360.13;;;-147.06;94.78
54453;BME280;40363;52.270;10.546;2023-02-11T03:55:36;78366.28;;;-147.06;94.62
54453;BME280;40363;52.270;10.546;2023-02-11T03:58:03;78370.41;;;-147.06;94.50
54453;BME280;40363;52.270;10.546;2023-02-11T04:00:31;78364.22;;;-147.06;94.70
54453;BME280;40363;52.270;10.546;2023-02-11T04:02:59;78353.94;;;-147.06;94.41
54453;BME280;40363;52.270;10.546;2023-02-11T04:05:25;78356.00;;;-147.06;94.84
54453;BME280;40363;52.270;10.546;2023-02-11T04:07:53;78353.94;;;-147.06;95.13
54453;BME280;40363;52.270;10.546;2023-02-11T04:10:20;78360.13;;;-147.06;95.39
54453;BME280;40363;52.270;10.546;2023-02-11T04:12:47;78364.22;;;-147.06;96.14
54453;BME280;40363;52.270;10.546;2023-02-11T04:15:13;78376.56;;;-147.06;96.77
54453;BME280;40363;52.270;10.546;2023-02-11T04:17:40;78372.47;;;-147.06;97.35
54453;BME280;40363;52.270;10.546;2023-02-11T04:20:09;78374.50;;;-147.06;97.40
54453;BME280;40363;52.270;10.546;2023-02-11T04:22:36;78370.41;;;-147.06;97.45
54453;BME280;40363;52.270;10.546;2023-02-11T04:25:08;78372.47;;;-147.06;97.54
54453;BME280;40363;52.270;10.546;2023-02-11T04:27:36;78368.34;;;-147.06;97.79
54453;BME280;40363;52.270;10.546;2023-02-11T04:30:04;78380.69;;;-147.06;98.08
54453;BME280;40363;52.270;10.546;2023-02-11T04:32:31;78393.03;;;-147.06;98.65
54453;BME280;40363;52.270;10.546;2023-02-11T04:34:58;78380.69;;;-147.06;98.75
54453;BME280;40363;52.270;10.546;2023-02-11T04:37:25;78397.13;;;-147.06;98.75
54453;BME280;40363;52.270;10.546;2023-02-11T04:39:52;78390.97;;;-147.06;99.05
54453;BME280;40363;52.270;10.546;2023-02-11T04:42:20;78388.91;;;-147.06;99.07
54453;BME280;40363;52.270;10.546;2023-02-11T04:44:46;78395.06;;;-147.06;99.97
54453;BME280;40363;52.270;10.546;2023-02-11T04:47:13;78390.97;;;-147.06;100.00
54453;BME280;40363;52.270;10.546;2023-02-11T04:49:40;78399.19;;;-147.06;100.00
54453;BME280;40363;52.270;10.546;2023-02-11T04:52:07;78397.13;;;-147.06;100.00
54453;BME280;40363;52.270;10.546;2023-02-11T04:54:34;78409.47;;;-147.06;100.00
54453;BME280;40363;52.270;10.546;2023-02-11T04:57:01;78405.34;;;-147.06;100.00
54453;BME280;40363;52.270;10.546;2023-02-11T04:59:29;78390.97;;;-147.06;100.00
54453;BME280;40363;52.270;10.546;2023-02-11T05:01:56;78399.19;;;-147.06;100.00
54453;BME280;40363;52.270;10.546;2023-02-11T05:04:23;78397.13;;;-147.06;100.00
54453;BME280;40363;52.270;10.546;2023-02-11T05:06:50;78395.06;;;-147.06;100.00
54453;BME280;40363;52.270;10.546;2023-02-11T05:09:17;78393.03;;;-147.06;100.00
54453;BME280;40363;52.270;10.546;2023-02-11T05:11:43;78388.91;;;-147.06;100.00
54453;BME280;40363;52.270;10.546;2023-02-11T05:14:13;78395.06;;;-147.06;100.00
54453;BME280;40363;52.270;10.546;2023-02-11T05:16:41;78380.69;;;-147.06;100.00
54453;BME280;40363;52.270;10.546;2023-02-11T05:19:08;78388.91;;;-147.06;100.00
54453;BME280;40363;52.270;10.546;2023-02-11T05:21:35;78384.78;;;-147.06;100.00
54453;BME280;40363;52.270;10.546;2023-02-11T05:24:02;78372.47;;;-147.06;100.00
54453;BME280;40363;52.270;10.546;2023-02-11T05:26:29;78376.56;;;-147.06;100.00
54453;BME280;40363;52.270;10.546;2023-02-11T05:28:56;78393.03;;;-147.06;100.00
54453;BME280;40363;52.270;10.546;2023-02-11T05:31:26;78390.97;;;-147.06;100.00
54453;BME280;40363;52.270;10.546;2023-02-11T05:33:54;78384.78;;;-147.06;100.00
54453;BME280;40363;52.270;10.546;2023-02-11T05:36:21;78388.91;;;-147.06;100.00
54453;BME280;40363;52.270;10.546;2023-02-11T05:38:47;78380.69;;;-147.06;100.00
54453;BME280;40363;52.270;10.546;2023-02-11T05:41:15;78388.91;;;-147.06;100.00
54453;BME280;40363;52.270;10.546;2023-02-11T05:43:42;78388.91;;;-147.06;100.00
54453;BME280;40363;52.270;10.546;2023-02-11T05:46:12;78384.78;;;-147.06;100.00
54453;BME280;40363;52.270;10.546;2023-02-11T05:48:41;78374.50;;;-147.06;100.00
54453;BME280;40363;52.270;10.546;2023-02-11T05:51:12;78372.47;;;-147.06;100.00
54453;BME280;40363;52.270;10.546;2023-02-11T05:53:39;78364.22;;;-147.06;100.00
54453;BME280;40363;52.270;10.546;2023-02-11T05:56:06;78374.50;;;-147.06;100.00
54453;BME280;40363;52.270;10.546;2023-02-11T05:58:33;78364.22;;;-147.06;100.00
54453;BME280;40363;52.270;10.546;2023-02-11T06:00:59;78368.34;;;-147.06;100.00
54453;BME280;40363;52.270;10.546;2023-02-11T06:03:26;78360.13;;;-147.06;100.00
54453;BME280;40363;52.270;10.546;2023-02-11T06:05:53;78360.13;;;-147.06;100.00
54453;BME280;40363;52.270;10.546;2023-02-11T06:08:22;78364.22;;;-147.06;100.00
54453;BME280;40363;52.270;10.546;2023-02-11T06:10:49;78360.13;;;-147.06;100.00
54453;BME280;40363;52.270;10.546;2023-02-11T06:13:16;78366.28;;;-147.06;100.00
54453;BME280;40363;52.270;10.546;2023-02-11T06:15:44;78347.78;;;-147.06;100.00
54453;BME280;40363;52.270;10.546;2023-02-11T06:18:10;78353.94;;;-147.06;100.00
54453;BME280;40363;52.270;10.546;2023-02-11T06:20:37;78343.66;;;-147.06;100.00
54453;BME280;40363;52.270;10.546;2023-02-11T06:23:05;78345.72;;;-147.06;100.00
54453;BME280;40363;52.270;10.546;2023-02-11T06:25:34;78339.56;;;-147.06;100.00
54453;BME280;40363;52.270;10.546;2023-02-11T06:28:00;78341.63;;;-147.06;100.00
54453;BME280;40363;52.270;10.546;2023-02-11T06:30:27;78341.63;;;-147.06;100.00
54453;BME280;40363;52.270;10.546;2023-02-11T06:32:53;78345.72;;;-147.06;100.00
54453;BME280;40363;52.270;10.546;2023-02-11T06:35:20;78337.50;;;-147.06;100.00
54453;BME280;40363;52.270;10.546;2023-02-11T06:37:46;78337.50;;;-147.06;100.00
54453;BME280;40363;52.270;10.546;2023-02-11T06:40:14;78335.44;;;-147.06;100.00
54453;BME280;40363;52.270;10.546;2023-02-11T06:42:42;78333.38;;;-147.06;100.00
54453;BME280;40363;52.270;10.546;2023-02-11T06:45:08;78337.50;;;-147.06;100.00
54453;BME280;40363;52.270;10.546;2023-02-11T06:47:37;78331.34;;;-147.06;100.00
54453;BME280;40363;52.270;10.546;2023-02-11T06:50:06;78335.44;;;-147.06;100.00
54453;BME280;40363;52.270;10.546;2023-02-11T06:52:33;78335.44;;;-147.06;100.00
54453;BME280;40363;52.270;10.546;2023-02-11T06:55:00;78331.34;;;-147.06;100.00
54453;BME280;40363;52.270;10.546;2023-02-11T06:57:26;78339.56;;;-147.06;100.00
54453;BME280;40363;52.270;10.546;2023-02-11T06:59:54;78329.28;;;-147.06;100.00
54453;BME280;40363;52.270;10.546;2023-02-11T07:02:21;78329.28;;;-147.06;100.00
54453;BME280;40363;52.270;10.546;2023-02-11T07:04:48;78323.09;;;-147.06;100.00
54453;BME280;40363;52.270;10.546;2023-02-11T07:07:14;78333.38;;;-147.06;100.00
54453;BME280;40363;52.270;10.546;2023-02-11T07:09:41;78321.06;;;-147.06;100.00
54453;BME280;40363;52.270;10.546;2023-02-11T07:12:08;78314.88;;;-147.06;100.00
54453;BME280;40363;52.270;10.546;2023-02-11T07:14:35;78316.94;;;-147.06;99.92
54453;BME280;40363;52.270;10.546;2023-02-11T07:17:03;78314.88;;;-147.06;99.97
54453;BME280;40363;52.270;10.546;2023-02-11T07:19:30;78312.81;;;-147.06;99.69
54453;BME280;40363;52.270;10.546;2023-02-11T07:21:56;78314.88;;;-147.06;99.73
54453;BME280;40363;52.270;10.546;2023-02-11T07:24:23;78306.66;;;-147.06;99.72
54453;BME280;40363;52.270;10.546;2023-02-11T07:26:50;78314.88;;;-147.06;99.80
54453;BME280;40363;52.270;10.546;2023-02-11T07:29:16;78312.81;;;-147.06;99.57
54453;BME280;40363;52.270;10.546;2023-02-11T07:31:43;78294.31;;;-147.06;99.02
54453;BME280;40363;52.270;10.546;2023-02-11T07:34:11;78294.31;;;-147.06;99.19
54453;BME280;40363;52.270;10.546;2023-02-11T07:36:37;78294.31;;;-147.06;99.61
54453;BME280;40363;52.270;10.546;2023-02-11T07:39:04;78277.88;;;-147.06;99.01
54453;BME280;40363;52.270;10.546;2023-02-11T07:41:31;78288.16;;;-147.06;99.05
54453;BME280;40363;52.270;10.546;2023-02-11T07:44:01;78284.03;;;-147.06;98.99
54453;BME280;40363;52.270;10.546;2023-02-11T07:46:28;78281.97;;;-147.06;98.83
54453;BME280;40363;52.270;10.546;2023-02-11T07:48:54;78275.81;;;-147.06;98.57
54453;BME280;40363;52.270;10.546;2023-02-11T07:51:24;78271.69;;;-147.06;98.36
54453;BME280;40363;52.270;10.546;2023-02-11T07:53:51;78275.81;;;-147.06;98.27
54453;BME280;40363;52.270;10.546;2023-02-11T07:56:20;78273.75;;;-147.06;98.29
54453;BME280;40363;52.270;10.546;2023-02-11T07:58:47;78286.09;;;-147.06;98.17
54453;BME280;40363;52.270;10.546;2023-02-11T08:01:19;78279.94;;;-147.06;98.30
54453;BME280;40363;52.270;10.546;2023-02-11T08:03:49;78284.03;;;-147.06;97.97
54453;BME280;40363;52.270;10.546;2023-02-11T08:06:18;78288.16;;;-147.06;97.90
54453;BME280;40363;52.270;10.546;2023-02-11T08:08:47;78286.09;;;-147.06;97.89
54453;BME280;40363;52.270;10.546;2023-02-11T08:11:16;78286.09;;;-147.06;97.63
54453;BME280;40363;52.270;10.546;2023-02-11T08:13:43;78279.94;;;-147.06;97.52
54453;BME280;40363;52.270;10.546;2023-02-11T08:16:17;78288.16;;;-147.06;97.88
54453;BME280;40363;52.270;10.546;2023-02-11T08:18:44;78281.97;;;-147.06;97.94
54453;BME280;40363;52.270;10.546;2023-02-11T08:21:11;78288.16;;;-147.06;98.18
54453;BME280;40363;52.270;10.546;2023-02-11T08:23:38;78281.97;;;-147.06;97.76
54453;BME280;40363;52.270;10.546;2023-02-11T08:26:09;78286.09;;;-147.06;97.90
54453;BME280;40363;52.270;10.546;2023-02-11T08:28:37;78286.09;;;-147.06;97.82
54453;BME280;40363;52.270;10.546;2023-02-11T08:31:05;78294.31;;;-147.06;98.03
54453;BME280;40363;52.270;10.546;2023-02-11T08:33:32;78290.22;;;-147.06;98.07
54453;BME280;40363;52.270;10.546;2023-02-11T08:35:59;78290.22;;;-147.06;98.25
54453;BME280;40363;52.270;10.546;2023-02-11T08:38:26;78281.97;;;-147.06;98.37
54453;BME280;40363;52.270;10.546;2023-02-11T08:40:52;78281.97;;;-147.06;98.39
54453;BME280;40363;52.270;10.546;2023-02-11T08:43:20;78284.03;;;-147.06;98.50
54453;BME280;40363;52.270;10.546;2023-02-11T08:45:47;78269.63;;;-147.06;98.22
54453;BME280;40363;52.270;10.546;2023-02-11T08:48:14;78269.63;;;-147.06;98.43
54453;BME280;40363;52.270;10.546;2023-02-11T08:50:41;78261.41;;;-147.06;98.37
54453;BME280;40363;52.270;10.546;2023-02-11T08:53:07;78271.69;;;-147.06;98.69
54453;BME280;40363;52.270;10.546;2023-02-11T08:55:34;78271.69;;;-147.06;99.09
54453;BME280;40363;52.270;10.546;2023-02-11T08:58:00;78265.53;;;-147.06;98.85
54453;BME280;40363;52.270;10.546;2023-02-11T09:00:28;78257.31;;;-147.06;98.55
54453;BME280;40363;52.270;10.546;2023-02-11T09:02:55;78244.97;;;-147.06;98.14
54453;BME280;40363;52.270;10.546;2023-02-11T09:05:21;78247.03;;;-147.06;98.25
54453;BME280;40363;52.270;10.546;2023-02-11T09:07:48;78249.09;;;-147.06;98.25
54453;BME280;40363;52.270;10.546;2023-02-11T09:10:15;78257.31;;;-147.06;98.40
54453;BME280;40363;52.270;10.546;2023-02-11T09:12:41;78253.19;;;-147.06;98.05
54453;BME280;40363;52.270;10.546;2023-02-11T09:15:08;78265.53;;;-147.06;98.21
54453;BME280;40363;52.270;10.546;2023-02-11T09:17:36;78244.97;;;-147.06;97.89
54453;BME280;40363;52.270;10.546;2023-02-11T09:20:03;78273.75;;;-147.06;98.26
54453;BME280;40363;52.270;10.546;2023-02-11T09:22:30;78271.69;;;-147.06;98.10
54453;BME280;40363;52.270;10.546;2023-02-11T09:24:57;78273.75;;;-147.06;98.15
54453;BME280;40363;52.270;10.546;2023-02-11T09:27:23;78277.88;;;-147.06;98.58
54453;BME280;40363;52.270;10.546;2023-02-11T09:29:50;78279.94;;;-147.06;98.46
54453;BME280;40363;52.270;10.546;2023-02-11T09:32:17;78279.94;;;-147.06;98.80
54453;BME280;40363;52.270;10.546;2023-02-11T09:34:45;78281.97;;;-147.06;98.97
54453;BME280;40363;52.270;10.546;2023-02-11T09:37:11;78281.97;;;-147.06;98.90
54453;BME280;40363;52.270;10.546;2023-02-11T09:39:38;78288.16;;;-147.06;99.03
54453;BME280;40363;52.270;10.546;2023-02-11T09:42:27;78290.22;;;-147.06;99.17
54453;BME280;40363;52.270;10.546;2023-02-11T09:44:57;78292.25;;;-147.06;99.16
54453;BME280;40363;52.270;10.546;2023-02-11T09:47:27;78298.44;;;-147.06;99.30
54453;BME280;40363;52.270;10.546;2023-02-11T09:49:59;78290.22;;;-147.06;99.13
54453;BME280;40363;52.270;10.546;2023-02-11T09:52:33;78284.03;;;-147.06;99.08
54453;BME280;40363;52.270;10.546;2023-02-11T09:55:04;78281.97;;;-147.06;99.34
54453;BME280;40363;52.270;10.546;2023-02-11T09:57:36;78296.38;;;-147.06;99.42
54453;BME280;40363;52.270;10.546;2023-02-11T10:00:16;78290.22;;;-147.06;99.68
54453;BME280;40363;52.270;10.546;2023-02-11T10:02:54;78281.97;;;-147.06;99.94
54453;BME280;40363;52.270;10.546;2023-02-11T10:05:37;78277.88;;;-147.06;99.81
54453;BME280;40363;52.270;10.546;2023-02-11T10:08:11;78288.16;;;-147.06;99.89
54453;BME280;40363;52.270;10.546;2023-02-11T10:10:47;78294.31;;;-147.06;100.00
54453;BME280;40363;52.270;10.546;2023-02-11T10:13:31;78290.22;;;-147.06;100.00
54453;BME280;40363;52.270;10.546;2023-02-11T10:16:08;78296.38;;;-147.06;100.00
54453;BME280;40363;52.270;10.546;2023-02-11T10:18:53;78306.66;;;-147.06;100.00
54453;BME280;40363;52.270;10.546;2023-02-11T10:21:31;78292.25;;;-147.06;100.00
54453;BME280;40363;52.270;10.546;2023-02-11T10:24:04;78281.97;;;-147.06;100.00
54453;BME280;40363;52.270;10.546;2023-02-11T10:26:35;78296.38;;;-147.06;100.00
54453;BME280;40363;52.270;10.546;2023-02-11T10:29:12;78286.09;;;-147.06;100.00
54453;BME280;40363;52.270;10.546;2023-02-11T10:31:45;78296.38;;;-147.06;100.00
54453;BME280;40363;52.270;10.546;2023-02-11T10:34:13;78298.44;;;-147.06;100.00
54453;BME280;40363;52.270;10.546;2023-02-11T10:36:43;78296.38;;;-147.06;100.00
54453;BME280;40363;52.270;10.546;2023-02-11T10:39:12;78284.03;;;-147.06;100.00
54453;BME280;40363;52.270;10.546;2023-02-11T10:41:42;78288.16;;;-147.06;100.00
54453;BME280;40363;52.270;10.546;2023-02-11T10:44:18;78290.22;;;-147.06;100.00
54453;BME280;40363;52.270;10.546;2023-02-11T10:46:48;78294.31;;;-147.06;100.00
54453;BME280;40363;52.270;10.546;2023-02-11T10:49:33;78284.03;;;-147.06;100.00
54453;BME280;40363;52.270;10.546;2023-02-11T10:52:26;78279.94;;;-147.06;100.00
54453;BME280;40363;52.270;10.546;2023-02-11T10:55:00;78273.75;;;-147.06;100.00
54453;BME280;40363;52.270;10.546;2023-02-11T10:57:30;78267.59;;;-147.06;100.00
54453;BME280;40363;52.270;10.546;2023-02-11T11:00:01;78273.75;;;-147.06;100.00
54453;BME280;40363;52.270;10.546;2023-02-11T11:02:29;78279.94;;;-147.06;100.00
54453;BME280;40363;52.270;10.546;2023-02-11T11:05:00;78281.97;;;-147.06;100.00
54453;BME280;40363;52.270;10.546;2023-02-11T11:07:29;78273.75;;;-147.06;100.00
54453;BME280;40363;52.270;10.546;2023-02-11T11:10:00;78269.63;;;-147.06;100.00
54453;BME280;40363;52.270;10.546;2023-02-11T11:12:32;78267.59;;;-147.06;100.00
54453;BME280;40363;52.270;10.546;2023-02-11T11:15:02;78275.81;;;-147.06;100.00
54453;BME280;40363;52.270;10.546;2023-02-11T11:17:29;78263.47;;;-147.06;100.00
54453;BME280;40363;52.270;10.546;2023-02-11T11:20:19;78263.47;;;-147.06;100.00
54453;BME280;40363;52.270;10.546;2023-02-11T11:22:48;78271.69;;;-147.06;100.00
54453;BME280;40363;52.270;10.546;2023-02-11T11:25:22;78255.25;;;-147.06;100.00
54453;BME280;40363;52.270;10.546;2023-02-11T11:27:50;78259.34;;;-147.06;100.00
54453;BME280;40363;52.270;10.546;2023-02-11T11:30:18;78253.19;;;-147.06;100.00
54453;BME280;40363;52.270;10.546;2023-02-11T11:32:45;78244.97;;;-147.06;100.00
54453;BME280;40363;52.270;10.546;2023-02-11T11:35:24;78247.03;;;-147.06;100.00
54453;BME280;40363;52.270;10.546;2023-02-11T11:37:56;78251.13;;;-147.06;100.00
54453;BME280;40363;52.270;10.546;2023-02-11T11:40:25;78253.19;;;-147.06;100.00
54453;BME280;40363;52.270;10.546;2023-02-11T11:43:14;78257.31;;;-147.06;100.00
54453;BME280;40363;52.270;10.546;2023-02-11T11:45:53;78244.97;;;-147.06;100.00
54453;BME280;40363;52.270;10.546;2023-02-11T11:48:23;78232.63;;;-147.06;100.00
54453;BME280;40363;52.270;10.546;2023-02-11T11:50:52;78242.91;;;-147.06;100.00
54453;BME280;40363;52.270;10.546;2023-02-11T11:53:27;78224.41;;;-147.06;100.00
54453;BME280;40363;52.270;10.546;2023-02-11T11:56:00;78220.28;;;-147.06;100.00
54453;BME280;40363;52.270;10.546;2023-02-11T11:58:30;78224.41;;;-147.06;100.00
54453;BME280;40363;52.270;10.546;2023-02-11T12:01:04;78214.13;;;-147.06;100.00
54453;BME280;40363;52.270;10.546;2023-02-11T12:06:45;78220.28;;;-147.06;100.00
54453;BME280;40363;52.270;10.546;2023-02-11T12:09:25;78212.06;;;-147.06;100.00
54453;BME280;40363;52.270;10.546;2023-02-11T12:12:05;78210.00;;;-147.06;99.73
54453;BME280;40363;52.270;10.546;2023-02-11T12:14:40;78210.00;;;-147.06;99.62
54453;BME280;40363;52.270;10.546;2023-02-11T12:17:16;78207.94;;;-147.06;99.53
54453;BME280;40363;52.270;10.546;2023-02-11T12:20:03;78216.19;;;-147.06;99.55
54453;BME280;40363;52.270;10.546;2023-02-11T12:22:46;78220.28;;;-147.06;100.00
54453;BME280;40363;52.270;10.546;2023-02-11T12:25:27;78216.19;;;-147.06;100.00
54453;BME280;40363;52.270;10.546;2023-02-11T12:28:13;78230.56;;;-147.06;100.00
54453;BME280;40363;52.270;10.546;2023-02-11T12:30:51;78226.47;;;-147.06;100.00
54453;BME280;40363;52.270;10.546;2023-02-11T12:33:34;78224.41;;;-147.06;100.00
54453;BME280;40363;52.270;10.546;2023-02-11T12:36:10;78228.53;;;-147.06;100.00
54453;BME280;40363;52.270;10.546;2023-02-11T12:38:56;78226.47;;;-147.06;100.00
54453;BME280;40363;52.270;10.546;2023-02-11T12:41:43;78220.28;;;-147.06;100.00
54453;BME280;40363;52.270;10.546;2023-02-11T12:44:38;78226.47;;;-147.06;99.94
54453;BME280;40363;52.270;10.546;2023-02-11T12:47:12;78222.34;;;-147.06;99.73